createdAt,value
2022-11-19T00:01:20.227Z,5.30
2022-11-19T00:03:52.332Z,5.27
2022-11-19T00:06:26.254Z,5.26
2022-11-19T00:08:54.480Z,4.99
2022-11-19T00:11:27.045Z,5.02
2022-11-19T00:13:54.954Z,4.98
2022-11-19T00:16:22.569Z,4.87
2022-11-19T00:18:50.481Z,4.48
2022-11-19T00:21:18.465Z,4.34
2022-11-19T00:23:46.198Z,4.67
2022-11-19T00:26:16.787Z,4.99
2022-11-19T00:28:46.907Z,4.71
2022-11-19T00:31:15.894Z,4.71
2022-11-19T00:33:44.522Z,4.46
2022-11-19T00:36:14.561Z,4.60
2022-11-19T00:38:42.865Z,4.60
2022-11-19T00:41:10.549Z,4.50
2022-11-19T00:43:38.451Z,4.52
2022-11-19T00:46:06.602Z,4.49
2022-11-19T00:48:34.327Z,4.33
2022-11-19T00:51:02.487Z,4.22
2022-11-19T00:53:30.133Z,4.12
2022-11-19T00:56:02.041Z,4.26
2022-11-19T00:58:30.145Z,4.20
2022-11-19T01:00:57.855Z,4.15
2022-11-19T01:03:26.475Z,3.97
2022-11-19T01:05:54.530Z,4.18
2022-11-19T01:08:22.218Z,4.00
2022-11-19T01:10:50.300Z,3.92
2022-11-19T01:13:18.236Z,3.96
2022-11-19T01:15:48.809Z,3.98
2022-11-19T01:18:17.209Z,4.06
2022-11-19T01:20:45.503Z,4.05
2022-11-19T01:23:13.447Z,4.01
2022-11-19T01:25:41.018Z,3.94
2022-11-19T01:28:08.897Z,3.81
2022-11-19T01:30:40.363Z,3.78
2022-11-19T01:33:07.995Z,3.77
2022-11-19T01:35:36.509Z,3.81
2022-11-19T01:38:04.924Z,3.82
2022-11-19T01:40:33.273Z,3.55
2022-11-19T01:43:01.170Z,3.48
2022-11-19T01:45:41.986Z,3.29
2022-11-19T01:48:22.407Z,3.32
2022-11-19T01:50:55.574Z,3.33
2022-11-19T01:53:26.634Z,3.09
2022-11-19T01:55:55.261Z,2.77
2022-11-19T01:58:24.293Z,2.66
2022-11-19T02:00:56.679Z,2.84
2022-11-19T02:03:27.129Z,3.15
2022-11-19T02:05:54.761Z,3.26
2022-11-19T02:08:42.237Z,3.02
2022-11-19T02:11:35.391Z,2.74
2022-11-19T02:14:21.642Z,2.96
2022-11-19T02:17:29.099Z,2.81
2022-11-19T02:20:24.876Z,3.03
2022-11-19T02:23:14.426Z,3.03
2022-11-19T02:26:00.979Z,3.06
2022-11-19T02:28:34.322Z,3.04
2022-11-19T02:31:25.103Z,3.04
2022-11-19T02:33:52.878Z,3.00
2022-11-19T02:36:49.965Z,3.05
2022-11-19T02:39:26.029Z,2.98
2022-11-19T02:42:01.849Z,2.81
2022-11-19T02:44:37.410Z,2.72
2022-11-19T02:47:08.059Z,2.42
2022-11-19T02:49:40.299Z,2.69
2022-11-19T02:52:08.121Z,2.70
2022-11-19T02:54:36.213Z,2.73
2022-11-19T02:57:04.066Z,2.58
2022-11-19T02:59:35.057Z,2.45
2022-11-19T03:02:05.249Z,2.43
2022-11-19T03:04:32.991Z,2.34
2022-11-19T03:07:11.083Z,2.03
2022-11-19T03:09:43.078Z,2.31
2022-11-19T03:12:13.416Z,2.47
2022-11-19T03:14:48.883Z,2.42
2022-11-19T03:17:20.107Z,2.61
2022-11-19T03:19:56.606Z,2.47
2022-11-19T03:22:31.469Z,2.31
2022-11-19T03:25:16.605Z,2.54
2022-11-19T03:27:47.555Z,2.58
2022-11-19T03:30:16.547Z,2.72
2022-11-19T03:32:58.338Z,2.59
2022-11-19T03:35:30.806Z,2.71
2022-11-19T03:38:02.410Z,2.79
2022-11-19T03:40:31.833Z,2.83
2022-11-19T03:43:00.994Z,2.66
2022-11-19T03:45:30.043Z,2.65
2022-11-19T03:48:00.000Z,2.58
2022-11-19T03:50:33.661Z,2.43
2022-11-19T03:53:04.606Z,2.72
2022-11-19T03:55:39.154Z,2.62
2022-11-19T03:58:07.814Z,2.47
2022-11-19T04:00:35.451Z,2.41
2022-11-19T04:03:04.096Z,2.50
2022-11-19T04:05:31.886Z,2.50
2022-11-19T04:08:00.079Z,2.60
2022-11-19T04:10:27.882Z,2.61
2022-11-19T04:12:55.521Z,2.66
2022-11-19T04:15:23.147Z,2.57
2022-11-19T04:17:51.120Z,2.56
2022-11-19T04:20:18.737Z,2.46
2022-11-19T04:22:46.343Z,2.42
2022-11-19T04:25:14.204Z,2.49
2022-11-19T04:27:41.732Z,2.63
2022-11-19T04:30:09.911Z,2.67
2022-11-19T04:32:37.789Z,2.56
2022-11-19T04:35:05.927Z,2.52
2022-11-19T04:37:33.658Z,2.53
2022-11-19T04:40:01.579Z,2.59
2022-11-19T04:42:29.166Z,2.58
2022-11-19T04:44:56.745Z,2.51
2022-11-19T04:47:24.641Z,2.43
2022-11-19T04:49:53.451Z,2.56
2022-11-19T04:52:21.108Z,2.55
2022-11-19T04:54:49.011Z,2.73
2022-11-19T04:57:16.556Z,2.60
2022-11-19T04:59:44.349Z,2.36
2022-11-19T05:02:12.178Z,2.35
2022-11-19T05:04:39.809Z,2.37
2022-11-19T05:07:07.391Z,2.06
2022-11-19T05:09:35.410Z,2.12
2022-11-19T05:12:03.182Z,2.41
2022-11-19T05:14:30.880Z,2.50
2022-11-19T05:16:58.825Z,2.44
2022-11-19T05:19:26.485Z,2.32
2022-11-19T05:21:54.091Z,2.34
2022-11-19T05:24:28.446Z,2.38
2022-11-19T05:26:56.084Z,2.28
2022-11-19T05:29:23.943Z,2.29
2022-11-19T05:31:51.534Z,2.12
2022-11-19T05:34:19.175Z,2.11
2022-11-19T05:36:47.151Z,2.31
2022-11-19T05:39:21.447Z,2.11
2022-11-19T05:41:50.130Z,2.12
2022-11-19T05:44:17.901Z,2.22
2022-11-19T05:46:45.523Z,2.19
2022-11-19T05:49:13.511Z,2.22
2022-11-19T05:51:41.129Z,2.23
2022-11-19T05:54:09.160Z,2.25
2022-11-19T05:56:37.103Z,2.36
2022-11-19T05:59:04.877Z,2.33
2022-11-19T06:01:32.490Z,2.23
2022-11-19T06:04:00.415Z,2.30
2022-11-19T06:06:28.182Z,2.46
2022-11-19T06:08:56.021Z,2.18
2022-11-19T06:11:23.877Z,2.14
2022-11-19T06:13:51.523Z,2.32
2022-11-19T06:16:19.197Z,2.29
2022-11-19T06:18:47.188Z,2.34
2022-11-19T06:21:14.852Z,2.49
2022-11-19T06:23:42.406Z,2.59
2022-11-19T06:26:10.490Z,2.38
2022-11-19T06:28:38.314Z,2.56
2022-11-19T06:31:06.258Z,2.25
2022-11-19T06:33:34.163Z,2.40
2022-11-19T06:36:01.789Z,2.55
2022-11-19T06:38:29.320Z,2.62
2022-11-19T06:40:57.203Z,2.40
2022-11-19T06:43:24.843Z,2.37
2022-11-19T06:45:52.444Z,2.53
2022-11-19T06:48:20.369Z,2.59
2022-11-19T06:50:48.206Z,2.75
2022-11-19T06:53:15.824Z,3.04
2022-11-19T06:55:43.700Z,2.87
2022-11-19T06:58:11.276Z,2.83
2022-11-19T07:00:38.909Z,2.99
2022-11-19T07:03:08.105Z,2.78
2022-11-19T07:05:35.784Z,2.79
2022-11-19T07:08:04.024Z,2.63
2022-11-19T07:10:32.008Z,2.97
2022-11-19T07:13:00.353Z,2.89
2022-11-19T07:15:27.975Z,3.05
2022-11-19T07:17:55.965Z,3.08
2022-11-19T07:20:23.671Z,2.62
2022-11-19T07:22:54.899Z,2.81
2022-11-19T07:25:27.387Z,2.86
2022-11-19T07:27:55.130Z,3.11
2022-11-19T07:30:22.803Z,2.90
2022-11-19T07:32:53.330Z,3.00
2022-11-19T07:35:20.928Z,2.96
2022-11-19T07:37:48.753Z,3.06
2022-11-19T07:40:17.941Z,3.17
2022-11-19T07:42:45.529Z,3.04
2022-11-19T07:45:13.359Z,3.24
2022-11-19T07:47:41.335Z,3.16
2022-11-19T07:50:09.133Z,3.38
2022-11-19T07:52:36.684Z,3.52
2022-11-19T07:55:05.655Z,3.36
2022-11-19T07:57:33.273Z,3.52
2022-11-19T08:00:01.027Z,3.74
2022-11-19T08:02:31.171Z,3.67
2022-11-19T08:04:59.047Z,3.69
2022-11-19T08:07:26.771Z,3.64
2022-11-19T08:09:54.590Z,3.01
2022-11-19T08:12:22.521Z,3.13
2022-11-19T08:14:50.092Z,2.84
2022-11-19T08:17:17.769Z,3.21
2022-11-19T08:19:45.846Z,3.06
2022-11-19T08:22:13.577Z,3.55
2022-11-19T08:24:41.188Z,3.27
2022-11-19T08:27:09.076Z,3.60
2022-11-19T08:29:36.805Z,4.06
2022-11-19T08:32:04.586Z,3.95
2022-11-19T08:34:32.465Z,3.45
2022-11-19T08:37:00.057Z,3.86
2022-11-19T08:39:27.891Z,3.85
2022-11-19T08:41:55.832Z,3.85
2022-11-19T08:44:23.658Z,4.10
2022-11-19T08:46:51.319Z,4.00
2022-11-19T08:49:19.261Z,4.32
2022-11-19T08:51:47.464Z,4.25
2022-11-19T08:54:15.074Z,4.47
2022-11-19T08:56:43.035Z,4.20
2022-11-19T08:59:10.764Z,4.11
2022-11-19T09:01:38.377Z,4.37
2022-11-19T09:04:06.497Z,4.55
2022-11-19T09:06:34.936Z,4.66
2022-11-19T09:09:03.577Z,4.46
2022-11-19T09:11:31.739Z,4.25
2022-11-19T09:13:59.387Z,3.68
2022-11-19T09:16:27.080Z,3.91
2022-11-19T09:18:55.227Z,3.94
2022-11-19T09:21:23.001Z,4.39
2022-11-19T09:23:50.630Z,4.53
2022-11-19T09:26:19.126Z,4.65
2022-11-19T09:28:46.656Z,4.45
2022-11-19T09:31:16.134Z,4.73
2022-11-19T09:33:47.859Z,4.87
2022-11-19T09:36:18.660Z,5.17
2022-11-19T09:38:47.352Z,5.31
2022-11-19T09:41:25.710Z,5.20
2022-11-19T09:43:56.558Z,5.11
2022-11-19T09:46:38.473Z,5.21
2022-11-19T09:49:14.877Z,5.22
2022-11-19T09:51:46.714Z,4.90
2022-11-19T09:54:17.699Z,5.07
2022-11-19T09:56:47.006Z,4.93
2022-11-19T09:59:33.993Z,5.24
2022-11-19T10:02:01.749Z,5.33
2022-11-19T10:04:32.092Z,5.11
2022-11-19T10:07:02.665Z,5.26
2022-11-19T10:09:58.709Z,4.67
2022-11-19T10:12:37.901Z,5.25
2022-11-19T10:15:37.132Z,5.36
2022-11-19T10:18:14.679Z,5.59
2022-11-19T10:20:54.682Z,5.81
2022-11-19T10:23:37.321Z,6.02
2022-11-19T10:26:11.129Z,6.39
2022-11-19T10:28:41.296Z,6.22
2022-11-19T10:31:17.026Z,6.62
2022-11-19T10:33:52.467Z,6.87
2022-11-19T10:36:31.460Z,6.58
2022-11-19T10:39:16.872Z,6.85
2022-11-19T10:41:54.103Z,6.82
2022-11-19T10:44:27.747Z,6.42
2022-11-19T10:46:55.768Z,6.62
2022-11-19T10:49:23.470Z,6.47
2022-11-19T10:51:51.191Z,6.43
2022-11-19T10:54:27.509Z,6.23
2022-11-19T10:56:56.294Z,6.50
2022-11-19T10:59:26.321Z,6.59
2022-11-19T11:01:58.077Z,7.16
2022-11-19T11:04:28.553Z,6.97
2022-11-19T11:07:01.436Z,6.97
2022-11-19T11:09:39.665Z,7.31
2022-11-19T11:12:14.086Z,7.46
2022-11-19T11:14:43.670Z,7.13
2022-11-19T11:17:29.165Z,6.93
2022-11-19T11:20:07.643Z,6.81
2022-11-19T11:22:35.952Z,6.86
2022-11-19T11:25:07.251Z,6.76
2022-11-19T11:27:42.438Z,6.63
2022-11-19T11:30:13.288Z,6.84
2022-11-19T11:32:41.169Z,6.76
2022-11-19T11:35:35.824Z,6.46
2022-11-19T11:38:04.640Z,6.60
2022-11-19T11:40:32.263Z,6.44
2022-11-19T11:43:00.051Z,6.48
2022-11-19T11:45:32.947Z,6.19
2022-11-19T11:48:19.931Z,6.02
2022-11-19T11:50:47.882Z,5.83
2022-11-19T11:53:17.548Z,6.03
2022-11-19T11:55:45.112Z,6.12
2022-11-19T11:58:31.165Z,6.13
2022-11-19T12:01:28.048Z,6.09
2022-11-19T12:03:57.732Z,6.12
2022-11-19T12:06:44.707Z,6.53
2022-11-19T12:09:27.402Z,6.74
2022-11-19T12:11:54.982Z,6.97
2022-11-19T12:14:49.292Z,7.28
2022-11-19T12:17:35.757Z,7.56
2022-11-19T12:20:32.848Z,7.20
2022-11-19T12:23:12.520Z,8.00
2022-11-19T12:25:58.283Z,7.81
2022-11-19T12:28:28.923Z,7.97
2022-11-19T12:31:14.650Z,7.84
2022-11-19T12:33:50.214Z,7.86
2022-11-19T12:36:29.386Z,7.77
2022-11-19T12:39:02.583Z,7.76
2022-11-19T12:42:02.425Z,7.90
2022-11-19T12:45:21.344Z,7.34
2022-11-19T12:48:10.474Z,7.30
2022-11-19T12:50:57.029Z,7.48
2022-11-19T12:53:33.698Z,7.52
2022-11-19T12:56:09.522Z,7.02
2022-11-19T12:59:03.950Z,6.57
2022-11-19T13:01:35.469Z,6.63
2022-11-19T13:04:10.509Z,6.36
2022-11-19T13:06:49.278Z,6.37
2022-11-19T13:09:47.264Z,6.33
2022-11-19T13:12:18.480Z,6.31
2022-11-19T13:15:09.315Z,5.71
2022-11-19T13:17:42.555Z,5.88
2022-11-19T13:20:37.220Z,5.94
2022-11-19T13:23:05.667Z,5.70
2022-11-19T13:25:41.298Z,6.04
2022-11-19T13:28:31.029Z,5.87
2022-11-19T13:31:04.303Z,5.93
2022-11-19T13:33:50.031Z,5.95
2022-11-19T13:36:58.548Z,6.02
2022-11-19T13:39:44.904Z,5.79
2022-11-19T13:42:14.388Z,5.90
2022-11-19T13:44:42.969Z,5.94
2022-11-19T13:47:26.441Z,5.84
2022-11-19T13:49:57.644Z,5.83
2022-11-19T13:52:32.188Z,5.73
2022-11-19T13:55:00.356Z,5.64
2022-11-19T13:57:33.451Z,5.57
2022-11-19T14:00:19.824Z,5.52
2022-11-19T14:03:00.046Z,5.34
2022-11-19T14:05:49.206Z,5.44
2022-11-19T14:09:01.486Z,5.27
2022-11-19T14:11:53.567Z,4.98
2022-11-19T14:14:41.132Z,5.12
2022-11-19T14:17:17.770Z,5.07
2022-11-19T14:19:56.522Z,5.00
2022-11-19T14:22:53.948Z,4.74
2022-11-19T14:25:47.665Z,4.67
2022-11-19T14:28:41.284Z,4.60
2022-11-19T14:31:10.809Z,4.53
2022-11-19T14:33:47.743Z,4.48
2022-11-19T14:36:23.205Z,4.53
2022-11-19T14:38:53.904Z,4.42
2022-11-19T14:41:33.199Z,4.12
2022-11-19T14:44:11.186Z,4.26
2022-11-19T14:46:42.848Z,4.10
2022-11-19T14:49:20.874Z,4.27
2022-11-19T14:51:56.767Z,3.89
2022-11-19T14:54:43.293Z,3.73
2022-11-19T14:57:14.055Z,3.81
2022-11-19T14:59:47.430Z,3.59
2022-11-19T15:02:35.789Z,3.78
2022-11-19T15:05:15.059Z,3.62
2022-11-19T15:07:55.991Z,3.62
2022-11-19T15:10:29.948Z,3.35
2022-11-19T15:13:34.007Z,3.54
2022-11-19T15:16:07.435Z,3.35
2022-11-19T15:19:10.901Z,3.54
2022-11-19T15:21:53.202Z,3.45
2022-11-19T15:24:29.686Z,3.41
2022-11-19T15:27:03.409Z,3.61
2022-11-19T15:29:59.049Z,3.45
2022-11-19T15:32:37.107Z,3.54
2022-11-19T15:35:18.710Z,3.31
2022-11-19T15:37:51.524Z,3.39
2022-11-19T15:40:23.252Z,3.24
2022-11-19T15:42:58.641Z,3.10
2022-11-19T15:45:27.338Z,3.16
2022-11-19T15:48:02.675Z,3.32
2022-11-19T15:50:30.666Z,3.23
2022-11-19T15:53:00.099Z,3.20
2022-11-19T15:55:30.172Z,3.34
2022-11-19T15:58:07.926Z,3.20
2022-11-19T16:00:47.823Z,3.17
2022-11-19T16:03:16.605Z,3.05
2022-11-19T16:06:00.493Z,2.99
2022-11-19T16:08:28.465Z,2.98
2022-11-19T16:10:56.259Z,3.12
2022-11-19T16:13:25.645Z,3.08
2022-11-19T16:15:54.340Z,2.90
2022-11-19T16:18:21.972Z,2.79
2022-11-19T16:20:50.872Z,2.90
2022-11-19T16:23:22.749Z,3.01
2022-11-19T16:25:50.679Z,2.97
2022-11-19T16:28:25.945Z,3.04
2022-11-19T16:31:04.219Z,2.92
2022-11-19T16:33:33.274Z,2.99
2022-11-19T16:36:15.355Z,3.05
2022-11-19T16:38:46.469Z,2.84
2022-11-19T16:41:20.170Z,2.89
2022-11-19T16:43:48.521Z,2.81
2022-11-19T16:46:19.207Z,2.84
2022-11-19T16:48:49.491Z,2.81
2022-11-19T16:51:35.370Z,2.87
2022-11-19T16:54:05.495Z,2.75
2022-11-19T16:56:44.437Z,2.87
2022-11-19T16:59:21.526Z,2.81
2022-11-19T17:01:52.123Z,2.55
2022-11-19T17:04:20.360Z,2.75
2022-11-19T17:06:48.422Z,2.97
2022-11-19T17:12:34.583Z,2.85
2022-11-19T17:15:32.831Z,2.75
2022-11-19T17:18:10.025Z,2.84
2022-11-19T17:20:38.663Z,2.83
2022-11-19T17:23:17.057Z,2.99
2022-11-19T17:25:56.003Z,2.63
2022-11-19T17:28:42.390Z,2.65
2022-11-19T17:31:34.781Z,2.52
2022-11-19T17:34:15.435Z,2.55
2022-11-19T17:36:43.519Z,2.61
2022-11-19T17:39:12.982Z,2.31
2022-11-19T17:41:41.075Z,2.32
2022-11-19T17:44:12.397Z,2.40
2022-11-19T17:46:40.050Z,2.36
2022-11-19T17:49:08.801Z,2.25
2022-11-19T17:51:36.964Z,2.17
2022-11-19T17:54:10.401Z,2.22
2022-11-19T17:56:38.480Z,2.14
2022-11-19T17:59:06.441Z,2.22
2022-11-19T18:01:34.136Z,2.22
2022-11-19T18:04:04.337Z,2.13
2022-11-19T18:06:32.006Z,2.08
2022-11-19T18:08:59.881Z,2.06
2022-11-19T18:11:27.963Z,2.08
2022-11-19T18:13:56.727Z,2.01
2022-11-19T18:16:26.529Z,2.00
2022-11-19T18:18:54.689Z,1.88
2022-11-19T18:21:22.925Z,2.05
2022-11-19T18:23:51.744Z,2.18
2022-11-19T18:26:21.742Z,1.93
2022-11-19T18:28:49.892Z,2.17
2022-11-19T18:31:27.412Z,2.05
2022-11-19T18:33:56.151Z,2.10
2022-11-19T18:36:26.849Z,1.93
2022-11-19T18:38:55.101Z,2.11
2022-11-19T18:41:22.963Z,1.98
2022-11-19T18:43:50.716Z,1.84
2022-11-19T18:46:18.891Z,1.83
2022-11-19T18:48:47.083Z,1.91
2022-11-19T18:51:15.024Z,1.78
2022-11-19T18:53:43.210Z,1.84
2022-11-19T18:56:18.731Z,1.81
2022-11-19T18:58:50.384Z,1.95
2022-11-19T19:01:18.359Z,1.93
2022-11-19T19:03:46.917Z,1.79
2022-11-19T19:06:14.778Z,1.74
2022-11-19T19:08:42.699Z,1.84
2022-11-19T19:11:11.155Z,1.78
2022-11-19T19:13:38.781Z,1.94
2022-11-19T19:16:07.189Z,2.02
2022-11-19T19:18:35.485Z,1.96
2022-11-19T19:21:03.601Z,1.90
2022-11-19T19:23:31.923Z,1.87
2022-11-19T19:26:00.116Z,1.94
2022-11-19T19:28:27.873Z,1.96
2022-11-19T19:30:58.750Z,1.75
2022-11-19T19:33:29.314Z,1.86
2022-11-19T19:35:57.545Z,1.85
2022-11-19T19:38:26.178Z,1.69
2022-11-19T19:40:54.673Z,1.83
2022-11-19T19:43:22.963Z,1.78
2022-11-19T19:45:50.758Z,1.80
2022-11-19T19:48:18.945Z,1.80
2022-11-19T19:50:50.835Z,1.70
2022-11-19T19:53:18.870Z,1.63
2022-11-19T19:55:46.872Z,1.76
2022-11-19T19:58:14.739Z,1.66
2022-11-19T20:00:42.878Z,1.70
2022-11-19T20:03:11.129Z,1.58
2022-11-19T20:05:38.895Z,1.81
2022-11-19T20:08:07.186Z,1.62
2022-11-19T20:10:38.805Z,1.69
2022-11-19T20:13:06.715Z,1.63
2022-11-19T20:15:34.589Z,1.64
2022-11-19T20:18:03.412Z,1.72
2022-11-19T20:20:31.244Z,1.75
2022-11-19T20:22:59.144Z,1.67
2022-11-19T20:25:27.317Z,1.70
2022-11-19T20:27:55.446Z,1.87
2022-11-19T20:30:23.533Z,1.72
2022-11-19T20:32:51.705Z,1.81
2022-11-19T20:35:19.529Z,1.82
2022-11-19T20:37:48.006Z,1.89
2022-11-19T20:40:16.687Z,1.90
2022-11-19T20:42:44.435Z,1.60
2022-11-19T20:45:12.361Z,1.62
2022-11-19T20:47:40.160Z,1.52
2022-11-19T20:50:08.348Z,1.62
2022-11-19T20:52:35.973Z,1.62
2022-11-19T20:55:06.786Z,1.49
2022-11-19T20:57:34.618Z,1.54
2022-11-19T21:00:02.517Z,1.57
2022-11-19T21:02:30.771Z,1.63
2022-11-19T21:04:59.468Z,1.55
2022-11-19T21:07:27.285Z,1.53
2022-11-19T21:09:55.209Z,1.59
2022-11-19T21:12:22.844Z,1.56
2022-11-19T21:14:50.381Z,1.54
2022-11-19T21:17:18.587Z,1.45
2022-11-19T21:19:46.165Z,1.51
2022-11-19T21:22:13.870Z,1.65
2022-11-19T21:24:41.797Z,1.59
2022-11-19T21:27:09.661Z,1.50
2022-11-19T21:29:37.393Z,1.64
2022-11-19T21:32:05.496Z,1.53
2022-11-19T21:34:33.411Z,1.44
2022-11-19T21:37:01.065Z,1.48
2022-11-19T21:39:29.186Z,1.54
2022-11-19T21:41:56.726Z,1.46
2022-11-19T21:44:24.648Z,1.47
2022-11-19T21:46:52.478Z,1.48
2022-11-19T21:49:20.672Z,1.53
2022-11-19T21:51:48.660Z,1.38
2022-11-19T21:54:16.601Z,1.57
2022-11-19T21:56:44.312Z,1.43
2022-11-19T21:59:11.949Z,1.33
2022-11-19T22:01:39.880Z,1.45
2022-11-19T22:04:07.999Z,1.42
2022-11-19T22:06:35.618Z,1.45
2022-11-19T22:09:03.196Z,1.27
2022-11-19T22:11:31.704Z,1.41
2022-11-19T22:14:04.759Z,1.38
2022-11-19T22:16:35.577Z,1.36
2022-11-19T22:19:03.884Z,1.45
2022-11-19T22:21:31.534Z,1.43
2022-11-19T22:23:59.814Z,1.35
2022-11-19T22:26:27.541Z,1.42
2022-11-19T22:28:55.115Z,1.29
2022-11-19T22:31:23.978Z,1.47
2022-11-19T22:33:52.288Z,1.43
2022-11-19T22:36:21.177Z,1.47
2022-11-19T22:38:50.700Z,1.30
2022-11-19T22:41:19.748Z,1.30
2022-11-19T22:43:47.372Z,1.31
2022-11-19T22:46:15.419Z,1.35
2022-11-19T22:48:43.552Z,1.31
2022-11-19T22:51:14.438Z,1.34
2022-11-19T22:53:42.724Z,1.34
2022-11-19T22:56:12.516Z,1.31
2022-11-19T22:58:40.644Z,1.44
2022-11-19T23:01:15.320Z,1.48
2022-11-19T23:03:42.982Z,1.43
2022-11-19T23:06:10.996Z,1.49
2022-11-19T23:08:38.628Z,1.42
2022-11-19T23:11:07.201Z,1.56
2022-11-19T23:13:38.294Z,1.58
2022-11-19T23:16:12.188Z,1.58
2022-11-19T23:18:42.226Z,1.53
2022-11-19T23:21:18.518Z,1.60
2022-11-19T23:23:46.764Z,1.67
2022-11-19T23:26:16.838Z,1.57
2022-11-19T23:28:44.728Z,1.56
2022-11-19T23:31:17.186Z,1.60
2022-11-19T23:33:45.450Z,1.63
2022-11-19T23:36:15.246Z,1.70
2022-11-19T23:38:43.325Z,1.56
2022-11-19T23:41:12.796Z,1.48
2022-11-19T23:43:41.073Z,1.50
2022-11-19T23:46:11.965Z,1.67
2022-11-19T23:48:41.514Z,1.51
2022-11-19T23:51:11.399Z,1.53
2022-11-19T23:53:39.019Z,1.54
2022-11-19T23:56:07.955Z,1.71
2022-11-19T23:58:36.129Z,1.54
